Time;durP1;ratioP1;P1;durP2;ratioP2;P2;SDS_P1;SDS_P2;PMS_P1;PMS_P2;Temp;Humidity;BMP_temperature;BMP_pressure;BME280_temperature;BME280_humidity;BME280_pressure;Samples;Min_cycle;Max_cycle;Signal;HPM_P1;HPM_P2
2021/05/09 00:01:54;;;;;;;5.53;2.20;;;19.40;93.50;;;;;;5003413;28;20484;-78
2021/05/09 00:04:21;;;;;;;2.58;1.60;;;19.40;93.50;;;;;;4997124;28;20392;-77
2021/05/09 00:06:49;;;;;;;3.60;2.03;;;19.50;93.40;;;;;;4998742;28;20027;-79
2021/05/09 00:09:17;;;;;;;2.50;1.70;;;19.60;93.60;;;;;;5001740;28;20031;-79
2021/05/09 00:11:44;;;;;;;2.78;1.35;;;19.50;94.10;;;;;;4995272;28;20027;-79
2021/05/09 00:14:11;;;;;;;2.75;1.25;;;19.40;93.70;;;;;;5001734;28;20038;-78
2021/05/09 00:16:39;;;;;;;3.80;1.92;;;19.50;93.30;;;;;;4998386;28;20109;-80
2021/05/09 00:19:06;;;;;;;2.95;1.48;;;19.60;93.00;;;;;;5000505;28;20030;-78
2021/05/09 00:21:34;;;;;;;3.30;1.33;;;19.60;92.60;;;;;;4993269;28;20495;-79
2021/05/09 00:24:02;;;;;;;5.20;1.85;;;19.50;92.60;;;;;;4989666;28;20121;-79
2021/05/09 00:26:29;;;;;;;4.88;1.63;;;19.50;92.60;;;;;;4998395;28;20025;-78
2021/05/09 00:28:57;;;;;;;3.50;1.08;;;19.70;91.90;;;;;;4990951;28;20034;-77
2021/05/09 00:31:24;;;;;;;4.43;1.63;;;19.80;91.60;;;;;;4993290;28;20386;-78
2021/05/09 00:33:52;;;;;;;1.55;1.05;;;19.60;90.70;;;;;;4998784;28;20384;-80
2021/05/09 00:36:19;;;;;;;3.90;1.40;;;19.50;91.00;;;;;;4994925;28;20050;-79
2021/05/09 00:38:47;;;;;;;3.45;1.25;;;19.50;91.00;;;;;;4987691;28;20042;-77
2021/05/09 00:41:14;;;;;;;2.20;1.48;;;19.50;90.40;;;;;;4992884;28;20022;-77
2021/05/09 00:43:42;;;;;;;2.10;1.20;;;19.50;90.70;;;;;;4991407;28;20088;-77
2021/05/09 00:46:10;;;;;;;2.35;1.02;;;19.60;90.40;;;;;;4983296;28;20384;-77
2021/05/09 00:48:37;;;;;;;2.42;1.05;;;19.70;90.70;;;;;;4990021;28;20417;-78
2021/05/09 00:51:06;;;;;;;4.97;1.58;;;19.90;91.00;;;;;;4995403;28;20022;-77
2021/05/09 00:53:35;;;;;;;2.50;1.50;;;19.90;90.70;;;;;;4995556;28;20034;-78
2021/05/09 00:56:04;;;;;;;2.78;1.80;;;20.00;91.10;;;;;;4997157;28;20496;-77
2021/05/09 00:58:35;;;;;;;2.75;1.17;;;20.00;90.80;;;;;;4992866;28;20042;-77
2021/05/09 01:01:03;;;;;;;2.40;1.08;;;20.00;90.90;;;;;;4990153;28;20025;-77
2021/05/09 01:03:32;;;;;;;1.85;1.00;;;20.20;90.80;;;;;;4991598;28;20010;-77
2021/05/09 01:06:01;;;;;;;5.15;1.10;;;20.20;89.80;;;;;;4989131;28;20027;-79
2021/05/09 01:08:30;;;;;;;1.98;1.38;;;20.30;89.00;;;;;;4993828;28;20030;-79
2021/05/09 01:10:57;;;;;;;1.85;0.88;;;20.40;88.30;;;;;;4996814;28;20030;-78
2021/05/09 01:13:25;;;;;;;4.05;0.80;;;20.40;88.60;;;;;;4989914;28;20068;-77
2021/05/09 01:15:52;;;;;;;1.25;0.80;;;20.40;88.30;;;;;;4992257;28;20018;-77
2021/05/09 01:18:20;;;;;;;1.75;1.00;;;20.40;88.60;;;;;;4991813;28;20034;-79
2021/05/09 01:20:47;;;;;;;0.40;0.40;;;20.30;88.20;;;;;;4988709;28;20030;-78
2021/05/09 01:23:15;;;;;;;2.65;1.13;;;20.30;88.10;;;;;;4997731;28;20485;-77
2021/05/09 01:25:42;;;;;;;2.17;0.90;;;20.30;87.90;;;;;;4993895;28;20030;-78
2021/05/09 01:28:10;;;;;;;2.13;0.85;;;20.30;88.00;;;;;;4991727;28;20061;-78
2021/05/09 01:30:38;;;;;;;3.40;1.10;;;20.30;87.50;;;;;;4991823;28;20030;-78
2021/05/09 01:33:06;;;;;;;2.42;0.95;;;20.20;88.40;;;;;;4999969;28;20498;-77
2021/05/09 01:35:34;;;;;;;1.35;0.80;;;20.10;86.30;;;;;;4991517;28;20385;-79
2021/05/09 01:38:04;;;;;;;2.38;0.90;;;20.00;86.20;;;;;;4995909;28;20038;-77
2021/05/09 01:40:31;;;;;;;1.95;1.15;;;20.10;87.60;;;;;;5000818;28;20022;-80
2021/05/09 01:42:59;;;;;;;2.10;1.05;;;19.90;87.70;;;;;;4999293;28;20149;-78
2021/05/09 01:45:26;;;;;;;1.30;0.85;;;20.00;89.00;;;;;;4997549;28;20022;-78
2021/05/09 01:47:53;;;;;;;4.55;1.00;;;20.10;89.50;;;;;;4993464;28;20019;-78
2021/05/09 01:50:21;;;;;;;1.27;0.70;;;20.10;88.60;;;;;;4994388;28;20050;-78
2021/05/09 01:52:49;;;;;;;4.20;1.00;;;20.10;89.80;;;;;;5000196;28;20112;-80
2021/05/09 01:55:22;;;;;;;1.30;0.60;;;20.10;88.70;;;;;;5003169;28;20026;-79
2021/05/09 01:57:49;;;;;;;1.50;1.05;;;20.20;87.90;;;;;;4999237;28;20066;-76
2021/05/09 02:00:19;;;;;;;1.15;0.73;;;20.30;88.00;;;;;;4994554;28;20033;-79
2021/05/09 02:02:48;;;;;;;5.43;0.90;;;20.20;85.90;;;;;;4999356;28;20044;-78
2021/05/09 02:05:17;;;;;;;0.93;0.65;;;20.30;86.40;;;;;;4988902;28;20392;-80
2021/05/09 02:07:44;;;;;;;1.48;0.80;;;20.40;85.90;;;;;;4996225;28;20389;-80
2021/05/09 02:10:13;;;;;;;4.38;1.50;;;20.50;87.20;;;;;;5000098;28;20034;-80
2021/05/09 02:12:40;;;;;;;2.22;1.13;;;20.60;87.40;;;;;;4996638;28;20105;-77
2021/05/09 02:15:08;;;;;;;1.52;0.95;;;20.70;86.70;;;;;;4995295;28;20030;-80
2021/05/09 02:17:36;;;;;;;2.55;1.05;;;20.90;86.90;;;;;;5004265;28;20393;-77
2021/05/09 02:20:08;;;;;;;2.45;1.55;;;20.90;87.20;;;;;;4995369;28;20104;-77
2021/05/09 02:22:35;;;;;;;0.88;0.80;;;21.10;85.70;;;;;;5000828;28;20266;-77
2021/05/09 02:25:04;;;;;;;1.75;0.80;;;21.20;84.80;;;;;;5001829;28;20050;-77
2021/05/09 02:27:31;;;;;;;1.17;0.70;;;21.30;85.10;;;;;;4994894;28;20030;-76
2021/05/09 02:29:59;;;;;;;3.35;0.85;;;21.60;83.50;;;;;;5000349;28;20561;-80
2021/05/09 02:32:26;;;;;;;2.70;1.45;;;21.90;84.00;;;;;;4997129;28;20030;-78
2021/05/09 02:34:54;;;;;;;1.13;0.68;;;22.00;83.70;;;;;;4999303;28;20088;-78
2021/05/09 02:37:21;;;;;;;2.35;0.75;;;21.90;81.90;;;;;;4994514;28;20056;-80
2021/05/09 02:39:48;;;;;;;4.75;1.35;;;21.80;81.70;;;;;;5001596;28;20084;-77
2021/05/09 02:42:16;;;;;;;2.13;1.30;;;21.80;81.50;;;;;;4990518;28;20038;-77
2021/05/09 02:44:43;;;;;;;2.35;1.02;;;22.00;83.40;;;;;;4991276;28;20065;-78
2021/05/09 02:47:27;;;;;;;1.42;0.88;;;22.00;80.80;;;;;;4998811;28;20034;-77
2021/05/09 02:50:07;;;;;;;1.95;1.20;;;22.00;81.90;;;;;;4995744;28;20050;-78
2021/05/09 02:52:35;;;;;;;4.30;1.10;;;21.80;80.60;;;;;;4992989;28;20465;-77
2021/05/09 02:55:04;;;;;;;1.80;1.10;;;21.90;82.00;;;;;;4992782;28;20026;-78
2021/05/09 02:57:31;;;;;;;2.15;0.95;;;22.00;81.10;;;;;;4993514;28;20041;-76
2021/05/09 03:00:01;;;;;;;2.50;1.45;;;22.00;80.60;;;;;;4990988;28;20018;-77
2021/05/09 03:02:28;;;;;;;3.53;1.58;;;22.10;80.60;;;;;;4995459;28;20524;-76
2021/05/09 03:04:56;;;;;;;2.72;1.45;;;22.10;80.90;;;;;;5000435;28;20030;-76
2021/05/09 03:07:23;;;;;;;2.38;0.80;;;22.20;82.00;;;;;;4995737;28;20084;-78
2021/05/09 03:09:50;;;;;;;2.47;1.00;;;22.30;81.80;;;;;;5000778;28;20092;-80
2021/05/09 03:12:18;;;;;;;2.47;1.33;;;22.30;84.10;;;;;;5001110;28;20059;-77
2021/05/09 03:14:45;;;;;;;4.15;1.30;;;22.30;83.70;;;;;;4991090;28;20034;-77
2021/05/09 03:17:13;;;;;;;6.50;1.85;;;22.10;83.00;;;;;;4997258;28;20034;-77
2021/05/09 03:19:40;;;;;;;1.92;1.35;;;22.00;83.40;;;;;;4992976;28;20184;-78
2021/05/09 03:22:07;;;;;;;1.98;1.17;;;21.80;84.10;;;;;;4996749;28;20381;-78
2021/05/09 03:24:35;;;;;;;3.38;1.30;;;21.70;85.70;;;;;;4993729;28;20034;-76
2021/05/09 03:27:02;;;;;;;2.03;1.30;;;21.70;85.80;;;;;;4992027;28;20032;-78
2021/05/09 03:29:30;;;;;;;2.45;1.38;;;21.70;86.80;;;;;;4997138;28;20536;-76
2021/05/09 03:31:57;;;;;;;1.50;0.98;;;21.50;86.90;;;;;;4997583;28;20049;-81
2021/05/09 03:34:24;;;;;;;2.72;1.55;;;21.40;88.40;;;;;;5005131;28;20064;-80
2021/05/09 03:36:52;;;;;;;2.83;1.45;;;21.20;88.40;;;;;;4999739;28;20042;-78
2021/05/09 03:39:20;;;;;;;1.67;1.08;;;21.00;88.20;;;;;;4995668;28;20508;-79
2021/05/09 03:41:48;;;;;;;2.55;1.65;;;20.90;88.40;;;;;;5002943;28;20105;-79
2021/05/09 03:44:16;;;;;;;1.58;1.27;;;20.90;90.40;;;;;;4999971;28;20030;-79
2021/05/09 03:46:43;;;;;;;2.30;1.08;;;20.90;88.80;;;;;;4996100;28;20061;-79
2021/05/09 03:49:11;;;;;;;4.45;1.60;;;21.00;89.10;;;;;;4999024;28;20046;-79
2021/05/09 03:51:39;;;;;;;4.13;1.77;;;21.10;88.70;;;;;;4998645;28;20368;-79
2021/05/09 03:54:06;;;;;;;2.58;1.42;;;21.10;89.10;;;;;;4995968;28;20041;-79
2021/05/09 03:56:34;;;;;;;2.60;1.40;;;21.00;89.20;;;;;;4996736;28;20052;-78
2021/05/09 03:59:01;;;;;;;2.80;1.55;;;21.00;88.20;;;;;;5005110;28;20038;-79
2021/05/09 04:01:28;;;;;;;4.60;1.75;;;20.90;87.80;;;;;;4997684;28;20026;-79
2021/05/09 04:03:56;;;;;;;8.18;2.47;;;20.80;88.40;;;;;;4999619;28;20073;-78
2021/05/09 04:06:23;;;;;;;3.50;1.55;;;20.80;89.80;;;;;;4994651;28;20087;-79
2021/05/09 04:08:50;;;;;;;5.25;1.63;;;20.80;89.00;;;;;;4998990;28;20081;-80
2021/05/09 04:11:18;;;;;;;2.72;1.92;;;20.90;90.00;;;;;;4994304;28;20101;-80
2021/05/09 04:13:50;;;;;;;2.92;1.55;;;20.80;89.20;;;;;;4999731;28;20036;-80
2021/05/09 04:16:17;;;;;;;3.33;1.50;;;20.90;88.80;;;;;;4999968;28;20033;-80
2021/05/09 04:18:45;;;;;;;1.63;1.38;;;20.90;88.80;;;;;;5001778;28;20042;-80
2021/05/09 04:21:12;;;;;;;1.80;1.17;;;20.90;87.90;;;;;;4999655;28;20422;-80
2021/05/09 04:23:40;;;;;;;6.30;1.35;;;21.00;86.50;;;;;;4999966;28;20488;-81
2021/05/09 04:26:07;;;;;;;4.75;1.50;;;21.00;87.60;;;;;;5004448;28;20033;-80
2021/05/09 04:28:35;;;;;;;2.53;1.48;;;21.10;88.90;;;;;;5000517;28;20100;-79
2021/05/09 04:31:02;;;;;;;3.50;1.95;;;20.90;87.60;;;;;;4996205;28;20449;-79
2021/05/09 04:33:29;;;;;;;2.13;1.65;;;20.90;88.10;;;;;;4996754;28;20568;-81
2021/05/09 04:35:57;;;;;;;2.05;1.30;;;21.00;87.80;;;;;;4996836;28;20037;-79
2021/05/09 04:38:24;;;;;;;5.35;2.20;;;21.00;87.10;;;;;;5002971;28;20547;-78
2021/05/09 04:40:52;;;;;;;3.95;1.70;;;21.00;87.50;;;;;;5001363;28;20030;-79
2021/05/09 04:43:21;;;;;;;5.43;1.95;;;21.00;87.40;;;;;;5003176;28;20042;-79
2021/05/09 04:45:53;;;;;;;3.83;1.95;;;20.90;87.30;;;;;;5001406;28;20930;-79
2021/05/09 04:48:21;;;;;;;5.53;2.00;;;20.90;87.90;;;;;;4996966;28;20076;-80
2021/05/09 04:50:50;;;;;;;4.65;1.48;;;20.80;87.90;;;;;;4993854;28;20046;-80
2021/05/09 04:53:39;;;;;;;1.98;1.30;;;20.80;87.90;;;;;;4999040;28;20026;-78
2021/05/09 04:56:08;;;;;;;3.28;2.17;;;20.80;89.20;;;;;;4995558;28;20030;-80
2021/05/09 04:58:42;;;;;;;2.90;1.63;;;20.80;89.90;;;;;;4996831;28;20747;-79
2021/05/09 05:01:12;;;;;;;5.28;1.23;;;20.70;88.60;;;;;;4999690;28;20188;-79
2021/05/09 05:03:40;;;;;;;4.28;1.70;;;20.60;90.00;;;;;;4996464;28;20052;-80
2021/05/09 05:06:08;;;;;;;2.60;1.60;;;20.60;89.60;;;;;;4999474;28;20033;-80
2021/05/09 05:08:35;;;;;;;2.97;1.77;;;20.50;90.10;;;;;;4999651;28;20030;-80
2021/05/09 05:11:07;;;;;;;2.03;1.42;;;20.40;90.30;;;;;;4993803;28;20038;-82
2021/05/09 05:13:35;;;;;;;3.95;1.20;;;20.40;90.10;;;;;;5003306;28;20022;-79
2021/05/09 05:16:06;;;;;;;2.13;1.08;;;20.40;90.00;;;;;;4998447;28;20362;-81
2021/05/09 05:18:36;;;;;;;2.45;1.60;;;20.40;90.20;;;;;;5002391;28;20056;-79
2021/05/09 05:21:06;;;;;;;2.40;1.40;;;20.40;90.10;;;;;;4998831;28;20088;-80
2021/05/09 05:23:36;;;;;;;2.22;1.30;;;20.40;90.00;;;;;;5004482;28;20044;-80
2021/05/09 05:26:04;;;;;;;3.20;1.35;;;20.30;90.70;;;;;;5003665;28;20108;-81
2021/05/09 05:28:32;;;;;;;3.42;1.40;;;20.20;90.30;;;;;;5002470;28;20022;-80
2021/05/09 05:30:59;;;;;;;1.92;1.27;;;20.00;90.50;;;;;;4998114;28;20041;-78
2021/05/09 05:33:36;;;;;;;3.53;1.58;;;20.00;90.80;;;;;;5001713;28;20025;-79
2021/05/09 05:36:05;;;;;;;2.47;1.00;;;20.00;90.90;;;;;;5001255;28;20030;-80
2021/05/09 05:38:33;;;;;;;4.10;1.33;;;20.00;90.90;;;;;;5003199;28;20034;-81
2021/05/09 05:41:01;;;;;;;4.93;1.65;;;19.90;90.80;;;;;;4998024;28;20023;-82
2021/05/09 05:43:32;;;;;;;2.55;2.10;;;19.90;91.30;;;;;;4998630;28;20077;-80
2021/05/09 05:46:01;;;;;;;3.45;2.00;;;19.80;91.30;;;;;;4994758;28;20028;-80
2021/05/09 05:48:31;;;;;;;2.30;1.17;;;19.70;91.30;;;;;;4997292;28;20030;-80
2021/05/09 05:50:59;;;;;;;2.58;1.25;;;19.80;91.50;;;;;;4996308;28;20056;-79
2021/05/09 05:53:29;;;;;;;2.30;1.20;;;19.70;91.40;;;;;;4993877;28;20105;-80
2021/05/09 05:55:56;;;;;;;3.25;1.85;;;19.70;91.60;;;;;;4998846;28;20128;-80
2021/05/09 05:58:24;;;;;;;4.10;2.30;;;19.60;92.40;;;;;;5003405;28;20092;-79
2021/05/09 06:00:52;;;;;;;3.28;1.67;;;19.50;92.70;;;;;;4993380;28;20057;-80
2021/05/09 06:03:20;;;;;;;3.90;2.20;;;19.50;93.00;;;;;;5002399;28;20030;-78
2021/05/09 06:05:48;;;;;;;4.70;2.08;;;19.40;93.30;;;;;;4996376;28;20278;-79
2021/05/09 06:08:17;;;;;;;3.63;2.42;;;19.40;93.50;;;;;;4998586;28;20034;-79
2021/05/09 06:10:46;;;;;;;3.40;2.33;;;19.40;94.00;;;;;;5000026;28;21836;-79
2021/05/09 06:13:15;;;;;;;3.65;2.22;;;19.30;94.00;;;;;;5000355;28;20472;-78
2021/05/09 06:15:42;;;;;;;3.60;2.30;;;19.40;94.10;;;;;;4992975;28;20472;-79
2021/05/09 06:18:10;;;;;;;4.43;1.92;;;19.40;94.30;;;;;;4999646;28;20164;-79
2021/05/09 06:20:37;;;;;;;3.03;2.45;;;19.40;94.20;;;;;;5000177;28;20530;-79
2021/05/09 06:23:05;;;;;;;4.20;1.83;;;19.40;94.50;;;;;;4999780;28;20084;-78
2021/05/09 06:25:33;;;;;;;3.58;1.88;;;19.40;94.40;;;;;;5000789;28;20516;-79
2021/05/09 06:28:00;;;;;;;2.20;1.60;;;19.40;94.40;;;;;;4999049;28;20042;-79
2021/05/09 06:30:28;;;;;;;2.47;1.60;;;19.40;94.70;;;;;;5003915;28;20095;-80
2021/05/09 06:32:55;;;;;;;2.15;1.55;;;19.40;94.80;;;;;;4995398;28;20042;-78
2021/05/09 06:35:23;;;;;;;3.63;1.88;;;19.30;95.00;;;;;;5005078;28;20548;-79
2021/05/09 06:37:51;;;;;;;3.45;2.00;;;19.30;95.40;;;;;;5005128;28;20046;-79
2021/05/09 06:40:20;;;;;;;5.97;2.63;;;19.20;95.60;;;;;;5001382;28;20030;-78
2021/05/09 06:42:56;;;;;;;3.38;2.00;;;19.30;95.60;;;;;;5001621;28;20389;-79
2021/05/09 06:45:28;;;;;;;7.57;4.25;;;19.20;95.90;;;;;;5005240;28;20427;-78
2021/05/09 06:48:01;;;;;;;2.95;2.33;;;19.30;95.90;;;;;;5002584;28;20036;-79
2021/05/09 06:50:31;;;;;;;6.28;2.00;;;19.20;96.20;;;;;;5007820;28;20052;-78
2021/05/09 06:52:59;;;;;;;3.15;2.05;;;19.20;96.40;;;;;;4998292;28;20030;-79
2021/05/09 06:55:27;;;;;;;2.88;1.67;;;19.10;96.60;;;;;;5000110;28;20041;-79
2021/05/09 06:57:54;;;;;;;7.38;3.63;;;19.00;96.70;;;;;;4998826;28;20030;-78
2021/05/09 07:00:22;;;;;;;11.35;6.53;;;19.00;96.70;;;;;;5003798;28;20112;-78
2021/05/09 07:02:50;;;;;;;8.90;5.82;;;19.00;96.70;;;;;;5001930;28;20392;-80
2021/05/09 07:05:17;;;;;;;12.75;6.78;;;18.90;96.90;;;;;;5001401;28;20026;-79
2021/05/09 07:07:55;;;;;;;6.40;4.03;;;18.80;97.10;;;;;;4997914;28;20029;-79
2021/05/09 07:10:25;;;;;;;5.00;2.97;;;18.80;97.40;;;;;;5002631;28;20523;-80
2021/05/09 07:12:56;;;;;;;4.00;2.58;;;18.70;97.60;;;;;;5003839;28;20030;-79
2021/05/09 07:15:29;;;;;;;5.00;2.25;;;18.70;97.80;;;;;;5005322;28;20037;-79
2021/05/09 07:18:05;;;;;;;2.50;2.00;;;18.60;97.60;;;;;;5001817;28;20061;-79
2021/05/09 07:20:34;;;;;;;;;;;18.60;97.70;;;;;;5003720;28;20030;-77
2021/05/09 07:23:05;;;;;;;4.75;2.67;;;18.60;97.80;;;;;;4998738;28;20015;-77
2021/05/09 07:25:32;;;;;;;3.72;2.20;;;18.60;97.90;;;;;;5004119;28;20022;-78
2021/05/09 07:28:13;;;;;;;2.42;1.75;;;18.60;98.00;;;;;;4999595;28;20470;-78
2021/05/09 07:30:43;;;;;;;2.20;2.00;;;18.50;98.10;;;;;;4996579;28;20034;-77
2021/05/09 07:33:14;;;;;;;4.30;3.17;;;18.50;98.20;;;;;;4998255;28;20030;-78
2021/05/09 07:35:42;;;;;;;5.07;2.63;;;18.40;98.30;;;;;;5001849;28;20551;-79
2021/05/09 07:38:11;;;;;;;3.95;2.10;;;18.40;98.20;;;;;;5000707;28;20045;-76
2021/05/09 07:40:39;;;;;;;2.72;2.17;;;18.40;98.30;;;;;;5002386;28;20064;-79
2021/05/09 07:43:07;;;;;;;2.50;1.63;;;18.40;98.40;;;;;;5003104;28;20108;-79
2021/05/09 07:45:35;;;;;;;2.30;1.75;;;18.30;98.50;;;;;;5002205;28;20138;-79
2021/05/09 07:48:02;;;;;;;2.13;1.92;;;18.30;98.80;;;;;;4999037;28;20056;-78
2021/05/09 07:50:30;;;;;;;1.67;1.50;;;18.30;98.70;;;;;;4999720;28;20065;-79
2021/05/09 07:53:00;;;;;;;1.75;1.27;;;18.30;98.70;;;;;;4997865;28;20057;-79
2021/05/09 07:55:29;;;;;;;2.20;1.45;;;18.30;98.70;;;;;;5000095;28;20040;-78
2021/05/09 07:57:58;;;;;;;2.05;1.50;;;18.20;98.70;;;;;;5003004;28;20116;-76
2021/05/09 08:00:26;;;;;;;2.65;1.75;;;18.20;98.80;;;;;;5005690;28;20030;-79
2021/05/09 08:02:54;;;;;;;2.00;1.35;;;18.20;98.90;;;;;;4999586;28;20029;-79
2021/05/09 08:05:24;;;;;;;2.08;1.27;;;18.20;99.00;;;;;;4999931;28;20053;-79
2021/05/09 08:07:56;;;;;;;2.70;1.42;;;18.20;99.30;;;;;;5001948;28;20540;-78
2021/05/09 08:10:25;;;;;;;4.28;1.77;;;18.20;99.10;;;;;;5000464;28;20066;-78
2021/05/09 08:12:54;;;;;;;1.55;1.25;;;18.20;99.30;;;;;;4997570;28;20098;-78
2021/05/09 08:15:22;;;;;;;2.80;1.73;;;18.10;99.20;;;;;;5000137;28;20084;-79
2021/05/09 08:17:53;;;;;;;8.07;2.78;;;18.10;99.20;;;;;;4996966;28;20390;-80
2021/05/09 08:20:20;;;;;;;18.40;8.82;;;18.10;99.30;;;;;;5004349;28;20126;-78
2021/05/09 08:22:48;;;;;;;18.27;9.65;;;18.10;99.30;;;;;;5000492;28;20048;-79
2021/05/09 08:25:16;;;;;;;13.50;7.30;;;18.10;99.40;;;;;;5002134;28;20029;-76
2021/05/09 08:27:45;;;;;;;12.48;7.72;;;18.10;99.50;;;;;;4999565;28;20034;-78
2021/05/09 08:30:17;;;;;;;5.60;3.17;;;18.00;99.50;;;;;;4999728;28;20025;-79
2021/05/09 08:32:44;;;;;;;5.10;2.88;;;18.00;99.60;;;;;;4993591;28;20033;-77
2021/05/09 08:35:12;;;;;;;4.03;1.73;;;18.00;99.60;;;;;;5002110;28;20064;-78
2021/05/09 08:37:41;;;;;;;3.58;2.58;;;17.90;99.80;;;;;;5000650;28;20409;-79
2021/05/09 08:40:12;;;;;;;2.13;1.70;;;18.00;99.30;;;;;;4996038;28;20042;-78
2021/05/09 08:42:40;;;;;;;2.67;1.55;;;17.90;99.40;;;;;;4998420;28;20034;-79
2021/05/09 08:45:09;;;;;;;2.78;1.45;;;17.90;99.40;;;;;;5000541;28;20034;-79
2021/05/09 08:47:40;;;;;;;5.40;1.65;;;17.90;99.30;;;;;;5000924;28;20030;-78
2021/05/09 08:50:21;;;;;;;3.85;1.90;;;17.90;99.30;;;;;;5002431;28;20050;-77
2021/05/09 08:52:50;;;;;;;3.17;1.92;;;17.90;99.30;;;;;;4997014;28;20042;-78
2021/05/09 08:55:23;;;;;;;5.60;1.45;;;17.90;99.20;;;;;;4992155;28;20022;-78
2021/05/09 08:57:51;;;;;;;3.60;1.92;;;17.90;99.00;;;;;;4999592;28;20145;-78
2021/05/09 09:00:19;;;;;;;5.30;2.00;;;17.90;99.10;;;;;;4992190;28;20113;-79
2021/05/09 09:02:47;;;;;;;3.33;1.83;;;17.90;99.00;;;;;;5003649;28;20117;-78
2021/05/09 09:05:15;;;;;;;4.45;2.42;;;17.90;98.70;;;;;;5002622;28;20033;-78
2021/05/09 09:07:52;;;;;;;5.25;3.05;;;17.80;98.50;;;;;;4998105;28;20026;-78
2021/05/09 09:10:48;;;;;;;5.78;2.05;;;17.80;98.40;;;;;;4998100;28;20026;-78
2021/05/09 09:13:23;;;;;;;3.10;1.83;;;17.70;98.60;;;;;;4999850;28;20088;-79
2021/05/09 09:15:55;;;;;;;1.87;1.20;;;17.70;97.90;;;;;;5003629;28;20037;-78
2021/05/09 09:18:41;;;;;;;2.45;1.45;;;17.70;97.90;;;;;;5000109;28;20377;-78
2021/05/09 09:21:29;;;;;;;1.45;1.08;;;17.70;97.70;;;;;;4995694;28;20519;-79
2021/05/09 09:24:07;;;;;;;5.32;2.30;;;17.70;97.80;;;;;;5002061;28;20034;-78
2021/05/09 09:26:42;;;;;;;2.28;1.15;;;17.60;97.40;;;;;;4998614;28;20018;-78
2021/05/09 09:29:30;;;;;;;2.97;1.67;;;17.60;97.50;;;;;;5001345;28;20088;-78
2021/05/09 09:32:09;;;;;;;2.97;1.27;;;17.60;97.20;;;;;;4996604;28;20027;-79
2021/05/09 09:34:40;;;;;;;1.88;0.93;;;17.60;97.40;;;;;;4997883;28;20051;-77
2021/05/09 09:37:09;;;;;;;1.98;0.88;;;17.60;97.20;;;;;;5000008;28;20030;-78
2021/05/09 09:39:55;;;;;;;2.30;1.15;;;17.60;97.30;;;;;;5002500;28;20038;-78
2021/05/09 09:42:41;;;;;;;2.67;1.02;;;17.60;97.30;;;;;;4995894;28;20097;-77
2021/05/09 09:45:17;;;;;;;2.20;1.08;;;17.50;97.20;;;;;;4995673;28;20389;-77
2021/05/09 09:47:52;;;;;;;2.45;1.88;;;17.50;97.30;;;;;;4997296;28;20410;-80
2021/05/09 09:50:37;;;;;;;3.08;1.73;;;17.50;97.30;;;;;;5001006;28;20049;-77
2021/05/09 09:53:43;;;;;;;9.80;4.70;;;17.50;97.40;;;;;;4990508;28;20419;-80
2021/05/09 09:56:11;;;;;;;4.65;3.17;;;17.40;97.40;;;;;;4993723;28;20323;-80
2021/05/09 09:58:57;;;;;;;7.65;3.28;;;17.40;97.40;;;;;;5000693;28;20548;-76
2021/05/09 10:01:28;;;;;;;3.35;1.85;;;17.50;97.50;;;;;;5000961;28;20530;-77
2021/05/09 10:04:00;;;;;;;2.80;1.65;;;17.50;97.40;;;;;;5001832;28;20088;-78
2021/05/09 10:06:29;;;;;;;2.88;1.52;;;17.50;97.50;;;;;;5002959;28;20030;-79
2021/05/09 10:08:58;;;;;;;2.22;1.42;;;17.40;97.70;;;;;;5002871;28;20037;-78
2021/05/09 10:11:29;;;;;;;3.25;1.75;;;17.40;97.70;;;;;;5002370;28;20108;-78
2021/05/09 10:13:58;;;;;;;2.63;1.65;;;17.40;97.70;;;;;;4999381;28;20520;-78
2021/05/09 10:16:31;;;;;;;2.47;1.73;;;17.40;97.70;;;;;;5007505;28;20028;-78
2021/05/09 10:19:05;;;;;;;4.28;2.15;;;17.40;97.90;;;;;;5002296;28;20366;-78
2021/05/09 10:21:37;;;;;;;2.00;1.70;;;17.40;97.60;;;;;;5001887;28;20026;-76
2021/05/09 10:24:12;;;;;;;4.90;2.42;;;17.40;97.80;;;;;;5003269;28;20679;-78
2021/05/09 10:26:50;;;;;;;3.35;2.90;;;17.40;97.90;;;;;;5005005;28;20392;-77
2021/05/09 10:29:40;;;;;;;19.33;13.98;;;17.40;97.80;;;;;;4999234;28;20050;-78
2021/05/09 10:32:08;;;;;;;14.07;9.60;;;17.40;97.80;;;;;;4989975;28;20022;-78
2021/05/09 10:34:53;;;;;;;9.52;6.80;;;17.30;97.70;;;;;;4999680;28;20046;-79
2021/05/09 10:37:39;;;;;;;6.03;3.45;;;17.30;97.80;;;;;;4996936;28;20049;-76
2021/05/09 10:40:34;;;;;;;6.22;3.40;;;17.30;97.70;;;;;;5005709;28;20042;-78
2021/05/09 10:43:04;;;;;;;2.60;1.33;;;17.30;97.70;;;;;;4998377;28;20062;-77
2021/05/09 10:45:35;;;;;;;3.03;1.45;;;17.30;97.60;;;;;;5004066;28;20030;-79
2021/05/09 10:51:03;;;;;;;4.45;1.42;;;17.30;97.60;;;;;;4999355;28;20128;-79
2021/05/09 10:53:36;;;;;;;3.80;1.65;;;17.30;97.60;;;;;;4994746;28;20023;-77
2021/05/09 10:56:27;;;;;;;3.03;1.60;;;17.20;97.80;;;;;;5003687;28;20030;-79
2021/05/09 10:58:55;;;;;;;3.78;1.92;;;17.20;97.80;;;;;;4999100;28;20054;-79
2021/05/09 11:01:28;;;;;;;8.95;2.83;;;17.10;97.80;;;;;;5002874;28;20026;-77
2021/05/09 11:04:14;;;;;;;5.78;3.30;;;17.10;97.90;;;;;;5001373;28;20033;-78
2021/05/09 11:06:42;;;;;;;;;;;17.20;97.90;;;;;;5003922;28;20500;-78
2021/05/09 11:09:42;;;;;;;4.22;1.75;;;17.10;98.00;;;;;;5002858;28;19992;-78
2021/05/09 11:12:10;;;;;;;3.50;1.58;;;17.10;97.90;;;;;;4999570;28;20030;-76
2021/05/09 11:14:38;;;;;;;2.10;1.25;;;17.00;98.00;;;;;;5004178;28;20041;-78
2021/05/09 11:17:08;;;;;;;4.45;1.77;;;17.00;97.90;;;;;;4996708;28;20026;-79
2021/05/09 11:19:45;;;;;;;3.42;2.20;;;17.00;97.90;;;;;;4999321;28;20060;-78
2021/05/09 11:22:13;;;;;;;3.67;2.20;;;17.00;98.00;;;;;;4998674;28;20496;-80
2021/05/09 11:24:42;;;;;;;4.20;2.35;;;17.00;98.20;;;;;;5001385;28;20033;-77
2021/05/09 11:27:12;;;;;;;3.63;2.20;;;17.00;98.00;;;;;;4997120;28;20117;-78
2021/05/09 11:29:41;;;;;;;2.83;1.80;;;17.00;97.90;;;;;;5002193;28;20390;-79
2021/05/09 11:32:14;;;;;;;2.88;1.90;;;17.00;98.30;;;;;;4993777;28;20029;-77
2021/05/09 11:34:56;;;;;;;2.95;1.75;;;16.90;98.10;;;;;;4998097;28;20046;-78
2021/05/09 11:37:30;;;;;;;5.25;3.72;;;16.90;98.20;;;;;;4999494;28;20426;-77
2021/05/09 11:40:01;;;;;;;2.90;2.50;;;16.90;98.10;;;;;;5003533;28;20085;-77
2021/05/09 11:42:30;;;;;;;3.88;2.45;;;16.90;98.00;;;;;;5000980;28;20393;-79
2021/05/09 11:44:58;;;;;;;3.10;2.60;;;16.90;98.20;;;;;;4999654;28;20108;-77
2021/05/09 11:47:31;;;;;;;2.50;1.35;;;16.80;98.40;;;;;;4996492;28;20611;-77
2021/05/09 11:50:01;;;;;;;3.45;2.20;;;16.80;98.10;;;;;;5002139;28;20049;-78
2021/05/09 11:52:31;;;;;;;4.22;1.73;;;16.80;98.20;;;;;;4998544;28;20026;-77
2021/05/09 11:54:59;;;;;;;2.65;1.65;;;16.80;98.30;;;;;;5002710;28;20018;-79
2021/05/09 11:57:29;;;;;;;2.05;1.40;;;16.80;98.40;;;;;;5002601;28;20126;-78
2021/05/09 12:00:07;;;;;;;4.75;1.60;;;16.70;98.30;;;;;;5001187;28;20029;-79
2021/05/09 12:02:39;;;;;;;2.70;1.70;;;16.70;98.40;;;;;;4996044;28;20374;-78
2021/05/09 12:05:13;;;;;;;3.17;2.00;;;16.80;98.40;;;;;;5004198;28;20033;-79
2021/05/09 12:07:53;;;;;;;3.35;1.80;;;16.80;98.50;;;;;;4999896;28;20493;-77
2021/05/09 12:10:29;;;;;;;4.63;2.08;;;16.90;98.60;;;;;;5005188;28;20472;-78
2021/05/09 12:13:07;;;;;;;4.63;2.47;;;16.90;98.70;;;;;;4996690;28;20041;-79
2021/05/09 12:15:39;;;;;;;4.35;2.00;;;16.90;98.40;;;;;;5004599;28;20022;-78
2021/05/09 12:18:08;;;;;;;3.75;1.70;;;16.80;98.40;;;;;;5001837;28;20041;-79
2021/05/09 12:20:36;;;;;;;2.15;1.60;;;16.80;98.30;;;;;;4996050;28;20026;-77
2021/05/09 12:23:06;;;;;;;2.00;1.27;;;16.80;98.60;;;;;;4996233;28;20038;-79
2021/05/09 12:25:45;;;;;;;2.03;1.50;;;16.80;98.60;;;;;;4995272;28;20022;-76
2021/05/09 12:28:16;;;;;;;3.92;2.20;;;16.80;98.70;;;;;;4996608;28;20030;-77
2021/05/09 12:30:45;;;;;;;2.80;2.08;;;16.90;98.90;;;;;;4991815;28;20032;-78
2021/05/09 12:33:24;;;;;;;2.50;2.05;;;16.80;99.00;;;;;;4992485;28;20061;-76
2021/05/09 12:35:54;;;;;;;5.18;2.08;;;16.80;98.50;;;;;;5002020;28;20472;-77
2021/05/09 12:38:35;;;;;;;3.60;2.30;;;16.80;98.40;;;;;;5003298;28;20045;-75
2021/05/09 12:41:12;;;;;;;9.55;3.97;;;16.80;98.40;;;;;;4995371;28;20088;-77
2021/05/09 12:43:49;;;;;;;3.42;2.15;;;16.70;98.60;;;;;;5000456;28;20081;-79
2021/05/09 12:46:35;;;;;;;3.13;1.63;;;16.60;98.60;;;;;;4988317;28;20098;-79
2021/05/09 12:49:19;;;;;;;2.53;1.70;;;16.60;98.90;;;;;;4993987;28;20035;-78
2021/05/09 12:51:49;;;;;;;3.45;1.80;;;16.60;98.90;;;;;;5000177;28;20036;-79
2021/05/09 12:54:38;;;;;;;2.95;1.80;;;16.60;99.30;;;;;;4995777;28;20052;-80
2021/05/09 12:57:25;;;;;;;4.93;2.05;;;16.60;99.10;;;;;;4995715;28;20497;-79
2021/05/09 13:00:06;;;;;;;3.50;1.33;;;16.60;99.00;;;;;;4998351;28;20045;-79
2021/05/09 13:02:47;;;;;;;3.88;1.58;;;16.60;99.10;;;;;;4991157;28;20116;-77
2021/05/09 13:05:20;;;;;;;2.63;1.63;;;16.50;99.10;;;;;;4991635;28;20102;-76
2021/05/09 13:07:49;;;;;;;2.47;1.55;;;16.50;99.30;;;;;;4997174;28;20393;-75
2021/05/09 13:10:23;;;;;;;4.15;1.60;;;16.50;99.40;;;;;;5003063;28;20476;-76